createdAt,value
2018-07-10T00:00:16.978Z,0.00
2018-07-10T00:02:09.839Z,0.00
2018-07-10T00:03:09.771Z,0.00
2018-07-10T00:05:02.744Z,0.00
2018-07-10T00:06:02.706Z,0.00
2018-07-10T00:07:55.549Z,0.00
2018-07-10T00:08:55.501Z,0.00
2018-07-10T00:10:48.332Z,0.00
2018-07-10T00:11:48.291Z,0.00
2018-07-10T00:13:41.127Z,0.00
2018-07-10T00:14:41.091Z,0.00
2018-07-10T00:16:34.095Z,0.00
2018-07-10T00:17:34.031Z,0.00
2018-07-10T00:19:27.185Z,0.00
2018-07-10T00:20:27.119Z,0.00
2018-07-10T00:22:20.115Z,0.00
2018-07-10T00:23:20.062Z,0.00
2018-07-10T00:25:13.050Z,0.00
2018-07-10T00:26:13.019Z,0.00
2018-07-10T00:28:05.860Z,0.00
2018-07-10T00:29:05.814Z,0.00
2018-07-10T00:30:58.826Z,0.00
2018-07-10T00:31:58.763Z,0.00
2018-07-10T00:33:51.736Z,0.00
2018-07-10T00:34:51.704Z,0.00
2018-07-10T00:36:44.954Z,0.00
2018-07-10T00:37:44.788Z,0.00
2018-07-10T00:39:37.754Z,0.00
2018-07-10T00:40:37.721Z,0.00
2018-07-10T00:42:30.698Z,0.00
2018-07-10T00:43:30.661Z,0.00
2018-07-10T00:45:23.786Z,0.00
2018-07-10T00:46:23.757Z,0.00
2018-07-10T00:48:16.746Z,0.00
2018-07-10T00:49:16.691Z,0.00
2018-07-10T00:51:09.607Z,0.00
2018-07-10T00:52:09.469Z,0.00
2018-07-10T00:54:02.644Z,0.00
2018-07-10T00:55:02.573Z,0.00
2018-07-10T00:56:55.563Z,0.00
2018-07-10T00:57:55.497Z,0.00
2018-07-10T00:59:48.324Z,0.00
2018-07-10T01:00:48.301Z,0.00
2018-07-10T01:02:41.447Z,0.00
2018-07-10T01:03:41.403Z,0.00
2018-07-10T01:05:34.374Z,0.00
2018-07-10T01:06:34.348Z,0.00
2018-07-10T01:08:27.360Z,0.00
2018-07-10T01:09:27.292Z,0.00
2018-07-10T01:11:20.150Z,0.00
2018-07-10T01:12:20.122Z,0.00
2018-07-10T01:14:13.104Z,0.00
2018-07-10T01:15:13.057Z,0.00
2018-07-10T01:17:06.048Z,0.00
2018-07-10T01:18:05.998Z,0.00
2018-07-10T01:19:59.197Z,0.00
2018-07-10T01:20:59.092Z,0.00
2018-07-10T01:22:52.082Z,0.00
2018-07-10T01:23:52.025Z,0.00
2018-07-10T01:25:45.000Z,0.00
2018-07-10T01:26:44.968Z,0.00
2018-07-10T01:28:37.848Z,0.00
2018-07-10T01:29:37.806Z,0.00
2018-07-10T01:31:30.658Z,0.00
2018-07-10T01:32:30.598Z,0.00
2018-07-10T01:34:23.605Z,0.00
2018-07-10T01:35:23.565Z,0.00
2018-07-10T01:37:16.525Z,0.00
2018-07-10T01:38:16.489Z,0.00
2018-07-10T01:40:09.341Z,0.00
2018-07-10T01:41:09.284Z,0.00
2018-07-10T01:43:02.275Z,0.00
2018-07-10T01:44:02.243Z,0.00
2018-07-10T01:45:55.064Z,0.00
2018-07-10T01:46:55.020Z,0.00
2018-07-10T01:48:48.013Z,0.00
2018-07-10T01:49:47.948Z,0.00
2018-07-10T01:51:40.828Z,0.00
2018-07-10T01:52:40.780Z,0.00
2018-07-10T01:54:33.789Z,0.00
2018-07-10T01:55:33.739Z,0.00
2018-07-10T01:57:26.539Z,0.00
2018-07-10T01:58:26.506Z,0.00
2018-07-10T02:00:19.863Z,0.00
2018-07-10T02:01:19.735Z,0.00
2018-07-10T02:03:12.554Z,0.00
2018-07-10T02:04:12.514Z,0.00
2018-07-10T02:06:05.516Z,0.00
2018-07-10T02:07:05.468Z,0.00
2018-07-10T02:08:58.524Z,0.00
2018-07-10T02:09:58.518Z,0.00
2018-07-10T02:11:51.395Z,0.00
2018-07-10T02:12:51.287Z,0.00
2018-07-10T02:14:44.465Z,0.00
2018-07-10T02:15:44.403Z,0.00
2018-07-10T02:17:37.531Z,0.00
2018-07-10T02:18:37.486Z,0.00
2018-07-10T02:20:30.501Z,0.00
2018-07-10T02:21:30.434Z,0.00
2018-07-10T02:23:23.396Z,0.00
2018-07-10T02:24:23.370Z,0.00
2018-07-10T02:26:16.245Z,0.00
2018-07-10T02:27:16.155Z,0.00
2018-07-10T02:29:09.128Z,0.00
2018-07-10T02:30:09.081Z,0.00
2018-07-10T02:32:02.085Z,0.00
2018-07-10T02:33:02.110Z,0.00
2018-07-10T02:34:54.842Z,0.00
2018-07-10T02:35:54.811Z,0.00
2018-07-10T02:37:47.774Z,0.00
2018-07-10T02:38:47.717Z,0.00
2018-07-10T02:40:40.688Z,0.00
2018-07-10T02:41:40.659Z,0.00
2018-07-10T02:43:33.666Z,0.00
2018-07-10T02:44:33.614Z,0.00
2018-07-10T02:46:26.798Z,0.00
2018-07-10T02:47:26.686Z,0.00
2018-07-10T02:49:19.661Z,0.00
2018-07-10T02:50:19.623Z,0.00
2018-07-10T02:52:12.612Z,0.00
2018-07-10T02:53:12.570Z,0.00
2018-07-10T02:55:05.633Z,0.00
2018-07-10T02:56:05.651Z,0.00
2018-07-10T02:57:58.633Z,0.00
2018-07-10T02:58:58.522Z,0.00
2018-07-10T03:00:51.489Z,0.00
2018-07-10T03:01:51.449Z,0.00
2018-07-10T03:03:44.337Z,0.00
2018-07-10T03:04:44.287Z,0.00
2018-07-10T03:06:37.254Z,0.00
2018-07-10T03:07:37.240Z,4.00
2018-07-10T03:09:30.273Z,0.00
2018-07-10T03:10:30.230Z,4.00
2018-07-10T03:12:23.063Z,0.00
2018-07-10T03:13:23.031Z,4.00
2018-07-10T03:15:16.022Z,4.00
2018-07-10T03:16:15.978Z,8.00
2018-07-10T03:18:08.799Z,8.00
2018-07-10T03:19:08.753Z,8.00
2018-07-10T03:21:01.744Z,8.00
2018-07-10T03:22:01.702Z,12.00
2018-07-10T03:23:54.858Z,12.00
2018-07-10T03:24:54.773Z,12.00
2018-07-10T03:26:47.739Z,16.00
2018-07-10T03:27:47.709Z,20.00
2018-07-10T03:29:40.689Z,24.00
2018-07-10T03:30:40.645Z,24.00
2018-07-10T03:32:33.479Z,28.00
2018-07-10T03:33:33.415Z,32.00
2018-07-10T03:35:26.393Z,36.00
2018-07-10T03:36:26.420Z,40.00
2018-07-10T03:38:19.364Z,44.00
2018-07-10T03:39:19.310Z,44.00
2018-07-10T03:41:12.130Z,44.00
2018-07-10T03:42:12.081Z,48.00
2018-07-10T03:44:04.905Z,44.00
2018-07-10T03:45:04.858Z,48.00
2018-07-10T03:46:57.755Z,52.00
2018-07-10T03:47:57.630Z,48.00
2018-07-10T03:49:50.623Z,36.00
2018-07-10T03:50:50.569Z,28.00
2018-07-10T03:52:43.581Z,24.00
2018-07-10T03:53:43.545Z,28.00
2018-07-10T03:55:36.377Z,32.00
2018-07-10T03:56:36.329Z,40.00
2018-07-10T03:58:29.320Z,52.00
2018-07-10T03:59:29.265Z,56.00
2018-07-10T04:01:22.255Z,76.00
2018-07-10T04:02:22.197Z,88.00
2018-07-10T04:04:15.239Z,104.00
2018-07-10T04:05:15.220Z,104.00
2018-07-10T04:07:08.221Z,104.00
2018-07-10T04:08:08.168Z,104.00
2018-07-10T04:10:00.980Z,104.00
2018-07-10T04:11:00.941Z,104.00
2018-07-10T04:12:53.925Z,112.00
2018-07-10T04:13:53.874Z,120.00
2018-07-10T04:15:47.007Z,144.00
2018-07-10T04:16:46.955Z,156.00
2018-07-10T04:18:39.927Z,176.00
2018-07-10T04:19:39.900Z,192.00
2018-07-10T04:21:32.750Z,224.00
2018-07-10T04:22:32.701Z,240.00
2018-07-10T04:24:26.003Z,304.00
2018-07-10T04:25:25.972Z,348.00
2018-07-10T04:27:19.000Z,432.00
2018-07-10T04:28:18.942Z,476.00
2018-07-10T04:30:12.083Z,532.00
2018-07-10T04:31:12.030Z,548.00
2018-07-10T04:33:05.022Z,576.00
2018-07-10T04:34:04.956Z,576.00
2018-07-10T04:35:57.948Z,576.00
2018-07-10T04:36:57.911Z,568.00
2018-07-10T04:38:50.833Z,556.00
2018-07-10T04:39:50.772Z,564.00
2018-07-10T04:41:43.732Z,612.00
2018-07-10T04:42:43.684Z,632.00
2018-07-10T04:44:36.661Z,668.00
2018-07-10T04:45:36.613Z,680.00
2018-07-10T04:47:29.811Z,656.00
2018-07-10T04:48:29.709Z,644.00
2018-07-10T04:50:22.697Z,644.00
2018-07-10T04:51:22.658Z,656.00
2018-07-10T04:53:15.657Z,672.00
2018-07-10T04:54:15.602Z,684.00
2018-07-10T04:56:08.463Z,704.00
2018-07-10T04:57:08.425Z,728.00
2018-07-10T04:59:01.477Z,784.00
2018-07-10T05:00:01.442Z,820.00
2018-07-10T05:01:54.393Z,880.00
2018-07-10T05:02:54.357Z,920.00
2018-07-10T05:04:47.552Z,968.00
2018-07-10T05:05:47.522Z,988.00
2018-07-10T05:07:40.468Z,1036.00
2018-07-10T05:08:40.440Z,1060.00
2018-07-10T05:10:33.471Z,1120.00
2018-07-10T05:11:33.423Z,1164.00
2018-07-10T05:13:26.294Z,1208.00
2018-07-10T05:14:26.211Z,1220.00
2018-07-10T05:16:19.204Z,1224.00
2018-07-10T05:17:19.157Z,1212.00
2018-07-10T05:19:12.159Z,1224.00
2018-07-10T05:20:12.102Z,1208.00
2018-07-10T05:22:05.520Z,1188.00
2018-07-10T05:23:04.993Z,1184.00
2018-07-10T05:24:57.964Z,1200.00
2018-07-10T05:25:57.894Z,1196.00
2018-07-10T05:27:50.865Z,1188.00
2018-07-10T05:28:50.897Z,1188.00
2018-07-10T05:30:44.083Z,1176.00
2018-07-10T05:31:43.914Z,1180.00
2018-07-10T05:33:36.877Z,1208.00
2018-07-10T05:34:36.840Z,1240.00
2018-07-10T05:36:29.835Z,1320.00
2018-07-10T05:37:29.785Z,1376.00
2018-07-10T05:39:22.938Z,1496.00
2018-07-10T05:40:22.866Z,1516.00
2018-07-10T05:42:15.709Z,1552.00
2018-07-10T05:43:15.655Z,1580.00
2018-07-10T05:45:08.684Z,1628.00
2018-07-10T05:46:08.614Z,1648.00
2018-07-10T05:48:01.763Z,1720.00
2018-07-10T05:49:01.679Z,1748.00
2018-07-10T05:50:54.687Z,1720.00
2018-07-10T05:51:54.706Z,1720.00
2018-07-10T05:53:47.617Z,1704.00
2018-07-10T05:54:47.581Z,1716.00
2018-07-10T05:56:40.411Z,1764.00
2018-07-10T05:57:40.365Z,1808.00
2018-07-10T05:59:33.346Z,1912.00
2018-07-10T06:00:33.301Z,1984.00
2018-07-10T06:02:26.327Z,2128.00
2018-07-10T06:03:26.296Z,2168.00
2018-07-10T06:05:19.440Z,2272.00
2018-07-10T06:06:19.307Z,2332.00
2018-07-10T06:08:12.315Z,2408.00
2018-07-10T06:09:12.257Z,2428.00
2018-07-10T06:11:05.232Z,2440.00
2018-07-10T06:12:05.202Z,2352.00
2018-07-10T06:13:58.373Z,2348.00
2018-07-10T06:14:58.286Z,2244.00
2018-07-10T06:16:51.299Z,1980.00
2018-07-10T06:17:51.220Z,1856.00
2018-07-10T06:19:44.202Z,1564.00
2018-07-10T06:20:44.172Z,1456.00
2018-07-10T06:22:37.198Z,1488.00
2018-07-10T06:23:37.157Z,1524.00
2018-07-10T06:25:30.124Z,1568.00
2018-07-10T06:26:30.089Z,1572.00
2018-07-10T06:28:23.072Z,1564.00
2018-07-10T06:29:23.038Z,1532.00
2018-07-10T06:31:17.038Z,1488.00
2018-07-10T06:32:16.997Z,1536.00
2018-07-10T06:34:09.966Z,1696.00
2018-07-10T06:35:09.923Z,1900.00
2018-07-10T06:37:02.737Z,2044.00
2018-07-10T06:38:02.713Z,2016.00
2018-07-10T06:39:55.844Z,1892.00
2018-07-10T06:40:55.769Z,1944.00
2018-07-10T06:42:48.746Z,1980.00
2018-07-10T06:43:48.711Z,2192.00
2018-07-10T06:45:41.689Z,2576.00
2018-07-10T06:46:41.641Z,2556.00
2018-07-10T06:48:35.561Z,3140.00
2018-07-10T06:49:35.504Z,3292.00
2018-07-10T06:51:28.508Z,3296.00
2018-07-10T06:52:28.625Z,3272.00
2018-07-10T06:54:21.448Z,3364.00
2018-07-10T06:55:21.434Z,3456.00
2018-07-10T06:57:14.202Z,3324.00
2018-07-10T06:58:14.168Z,3076.00
2018-07-10T07:00:07.009Z,2788.00
2018-07-10T07:01:06.948Z,3172.00
2018-07-10T07:02:59.909Z,3616.00
2018-07-10T07:03:59.872Z,3668.00
2018-07-10T07:05:52.875Z,3516.00
2018-07-10T07:06:52.823Z,3692.00
2018-07-10T07:08:46.098Z,3836.00
2018-07-10T07:09:45.918Z,3984.00
2018-07-10T07:11:38.909Z,3564.00
2018-07-10T07:12:38.853Z,3512.00
2018-07-10T07:14:32.828Z,3276.00
2018-07-10T07:15:32.790Z,3088.00
2018-07-10T07:17:25.683Z,3268.00
2018-07-10T07:18:25.630Z,3312.00
2018-07-10T07:20:18.617Z,3236.00
2018-07-10T07:21:18.584Z,2836.00
2018-07-10T07:23:11.570Z,2684.00
2018-07-10T07:24:11.518Z,2672.00
2018-07-10T07:26:04.720Z,2656.00
2018-07-10T07:27:04.610Z,2960.00
2018-07-10T07:28:57.574Z,3208.00
2018-07-10T07:29:57.535Z,3276.00
2018-07-10T07:31:50.540Z,3424.00
2018-07-10T07:32:50.483Z,3400.00
2018-07-10T07:34:43.396Z,3160.00
2018-07-10T07:35:43.358Z,3196.00
2018-07-10T07:37:36.364Z,3204.00
2018-07-10T07:38:36.314Z,3340.00
2018-07-10T07:40:29.269Z,3396.00
2018-07-10T07:41:29.284Z,3540.00
2018-07-10T07:43:22.079Z,3512.00
2018-07-10T07:44:22.063Z,3440.00
2018-07-10T07:46:15.074Z,3184.00
2018-07-10T07:47:15.035Z,3240.00
2018-07-10T07:49:08.041Z,3100.00
2018-07-10T07:50:07.995Z,3004.00
2018-07-10T07:52:00.971Z,3164.00
2018-07-10T07:53:00.943Z,3468.00
2018-07-10T07:54:53.961Z,4020.00
2018-07-10T07:55:53.895Z,4296.00
2018-07-10T07:57:46.881Z,4624.00
2018-07-10T07:58:46.829Z,4940.00
2018-07-10T08:00:39.801Z,5328.00
2018-07-10T08:01:39.766Z,5700.00
2018-07-10T08:03:32.791Z,6040.00
2018-07-10T08:04:32.739Z,6020.00
2018-07-10T08:06:26.740Z,5868.00
2018-07-10T08:07:26.702Z,5864.00
2018-07-10T08:09:19.769Z,6424.00
2018-07-10T08:10:19.716Z,6692.00
2018-07-10T08:12:12.697Z,6908.00
2018-07-10T08:13:12.655Z,6852.00
2018-07-10T08:15:05.691Z,6700.00
2018-07-10T08:16:05.625Z,6748.00
2018-07-10T08:17:58.860Z,6888.00
2018-07-10T08:18:58.733Z,6920.00
2018-07-10T08:20:51.713Z,6420.00
2018-07-10T08:21:51.676Z,6096.00
2018-07-10T08:23:44.677Z,5420.00
2018-07-10T08:24:44.633Z,5044.00
2018-07-10T08:26:37.456Z,3632.00
2018-07-10T08:27:37.426Z,3256.00
2018-07-10T08:29:30.405Z,3600.00
2018-07-10T08:30:30.370Z,3960.00
2018-07-10T08:32:24.370Z,4872.00
2018-07-10T08:33:24.395Z,5424.00
2018-07-10T08:35:17.482Z,6340.00
2018-07-10T08:36:17.425Z,6700.00
2018-07-10T08:38:10.447Z,7240.00
2018-07-10T08:39:10.403Z,7556.00
2018-07-10T08:41:03.253Z,8076.00
2018-07-10T08:42:03.209Z,8368.00
2018-07-10T08:43:56.370Z,8424.00
2018-07-10T08:44:56.326Z,8356.00
2018-07-10T08:46:49.317Z,8484.00
2018-07-10T08:47:49.268Z,8288.00
2018-07-10T08:49:42.281Z,6624.00
2018-07-10T08:50:42.271Z,5376.00
2018-07-10T08:52:35.107Z,4108.00
2018-07-10T08:53:35.060Z,3804.00
2018-07-10T08:55:28.053Z,4400.00
2018-07-10T08:56:28.011Z,4256.00
2018-07-10T08:58:20.994Z,5064.00
2018-07-10T08:59:20.961Z,5628.00
2018-07-10T09:01:13.793Z,6556.00
2018-07-10T09:02:13.749Z,7112.00
2018-07-10T09:04:06.684Z,7560.00
2018-07-10T09:05:06.608Z,7960.00
2018-07-10T09:06:59.604Z,7884.00
2018-07-10T09:07:59.606Z,7272.00
2018-07-10T09:09:52.577Z,5904.00
2018-07-10T09:10:52.534Z,5932.00
2018-07-10T09:12:45.398Z,7388.00
2018-07-10T09:13:45.401Z,8508.00
2018-07-10T09:15:38.333Z,10432.00
2018-07-10T09:16:38.301Z,10492.00
2018-07-10T09:18:31.108Z,9032.00
2018-07-10T09:19:31.065Z,8492.00
2018-07-10T09:21:24.080Z,8868.00
2018-07-10T09:22:24.038Z,9316.00
2018-07-10T09:24:17.088Z,9592.00
2018-07-10T09:25:17.044Z,9788.00
2018-07-10T09:27:10.029Z,9428.00
2018-07-10T09:28:09.976Z,9332.00
2018-07-10T09:30:03.148Z,8288.00
2018-07-10T09:31:03.104Z,6776.00
2018-07-10T09:32:56.119Z,5640.00
2018-07-10T09:33:56.062Z,5428.00
2018-07-10T09:35:49.060Z,5812.00
2018-07-10T09:36:49.011Z,6400.00
2018-07-10T09:38:42.350Z,6712.00
2018-07-10T09:39:42.113Z,7052.00
2018-07-10T09:41:34.934Z,7140.00
2018-07-10T09:42:34.918Z,6680.00
2018-07-10T09:44:27.902Z,6636.00
2018-07-10T09:45:27.855Z,7016.00
2018-07-10T09:47:20.990Z,7336.00
2018-07-10T09:48:20.955Z,7512.00
2018-07-10T09:50:13.961Z,6920.00
2018-07-10T09:51:13.907Z,5972.00
2018-07-10T09:53:06.915Z,4732.00
2018-07-10T09:54:06.845Z,3996.00
2018-07-10T09:55:59.676Z,2992.00
2018-07-10T09:56:59.635Z,2700.00
2018-07-10T09:58:52.631Z,2300.00
2018-07-10T09:59:52.571Z,2296.00
2018-07-10T10:01:45.613Z,2320.00
2018-07-10T10:02:45.536Z,2436.00
2018-07-10T10:04:38.717Z,2892.00
2018-07-10T10:05:38.620Z,3140.00
2018-07-10T10:07:31.597Z,3156.00
2018-07-10T10:08:31.588Z,3116.00
2018-07-10T10:10:24.558Z,3248.00
2018-07-10T10:11:24.496Z,3304.00
2018-07-10T10:13:17.342Z,3300.00
2018-07-10T10:14:17.317Z,3204.00
2018-07-10T10:16:10.320Z,3004.00
2018-07-10T10:17:10.261Z,3044.00
2018-07-10T10:19:03.268Z,3116.00
2018-07-10T10:20:03.218Z,3132.00
2018-07-10T10:21:56.419Z,3004.00
2018-07-10T10:22:56.314Z,2864.00
2018-07-10T10:24:49.322Z,2900.00
2018-07-10T10:25:49.315Z,3128.00
2018-07-10T10:27:42.330Z,3660.00
2018-07-10T10:28:42.272Z,4016.00
2018-07-10T10:30:35.446Z,4592.00
2018-07-10T10:31:35.417Z,4840.00
2018-07-10T10:33:28.427Z,5268.00
2018-07-10T10:34:28.388Z,5240.00
2018-07-10T10:36:21.499Z,4932.00
2018-07-10T10:37:21.474Z,4772.00
2018-07-10T10:39:14.475Z,4692.00
2018-07-10T10:40:14.437Z,4820.00
2018-07-10T10:42:07.432Z,4920.00
2018-07-10T10:43:07.396Z,4796.00
2018-07-10T10:45:00.423Z,4364.00
2018-07-10T10:46:00.383Z,4060.00
2018-07-10T10:47:53.382Z,3724.00
2018-07-10T10:48:53.419Z,3788.00
2018-07-10T10:50:46.479Z,4228.00
2018-07-10T10:51:46.432Z,4316.00
2018-07-10T10:53:39.588Z,4128.00
2018-07-10T10:54:39.600Z,4140.00
2018-07-10T10:56:32.905Z,4140.00
2018-07-10T10:57:32.848Z,4088.00
2018-07-10T10:59:25.813Z,3788.00
2018-07-10T11:00:25.792Z,3616.00
2018-07-10T11:02:19.064Z,3516.00
2018-07-10T11:03:18.927Z,3636.00
2018-07-10T11:05:11.933Z,4140.00
2018-07-10T11:06:11.902Z,4380.00
2018-07-10T11:08:04.893Z,4088.00
2018-07-10T11:09:04.853Z,3856.00
2018-07-10T11:10:57.678Z,3628.00
2018-07-10T11:11:57.633Z,3592.00
2018-07-10T11:13:50.646Z,3920.00
2018-07-10T11:14:50.588Z,4144.00
2018-07-10T11:16:43.588Z,4204.00
2018-07-10T11:17:43.530Z,4144.00
2018-07-10T11:19:36.709Z,4212.00
2018-07-10T11:20:36.643Z,4200.00
2018-07-10T11:22:29.636Z,4160.00
2018-07-10T11:23:29.583Z,4156.00
2018-07-10T11:25:22.599Z,3956.00
2018-07-10T11:26:22.568Z,3672.00
2018-07-10T11:28:15.664Z,3196.00
2018-07-10T11:29:15.386Z,3088.00
2018-07-10T11:31:08.218Z,3016.00
2018-07-10T11:32:08.184Z,2928.00
2018-07-10T11:34:01.253Z,2760.00
2018-07-10T11:35:01.126Z,2696.00
2018-07-10T11:36:54.114Z,2308.00
2018-07-10T11:37:54.075Z,2104.00
2018-07-10T11:39:47.126Z,1868.00
2018-07-10T11:40:47.090Z,1796.00
2018-07-10T11:42:39.910Z,2060.00
2018-07-10T11:43:39.861Z,2284.00
2018-07-10T11:45:32.839Z,2484.00
2018-07-10T11:46:32.829Z,2736.00
2018-07-10T11:48:25.980Z,3288.00
2018-07-10T11:49:25.893Z,3572.00
2018-07-10T11:51:18.893Z,3616.00
2018-07-10T11:52:18.829Z,3828.00
2018-07-10T11:54:12.184Z,4544.00
2018-07-10T11:55:12.044Z,4864.00
2018-07-10T11:57:05.066Z,4360.00
2018-07-10T11:58:05.010Z,4008.00
2018-07-10T11:59:57.995Z,3904.00
2018-07-10T12:00:57.956Z,3988.00
2018-07-10T12:02:50.791Z,4240.00
2018-07-10T12:03:50.731Z,4244.00
2018-07-10T12:05:43.732Z,3708.00
2018-07-10T12:06:43.718Z,3256.00
2018-07-10T12:08:36.711Z,2744.00
2018-07-10T12:09:36.644Z,2660.00
2018-07-10T12:11:29.495Z,2804.00
2018-07-10T12:12:29.521Z,2840.00
2018-07-10T12:14:22.564Z,2828.00
2018-07-10T12:15:22.512Z,2864.00
2018-07-10T12:17:15.481Z,3120.00
2018-07-10T12:18:15.459Z,2920.00
2018-07-10T12:20:08.551Z,2660.00
2018-07-10T12:21:08.494Z,2784.00
2018-07-10T12:23:01.320Z,2720.00
2018-07-10T12:24:01.266Z,2756.00
2018-07-10T12:25:54.286Z,3072.00
2018-07-10T12:26:54.233Z,3312.00
2018-07-10T12:28:47.229Z,3044.00
2018-07-10T12:29:47.163Z,2884.00
2018-07-10T12:31:40.013Z,2784.00
2018-07-10T12:32:39.946Z,2500.00
2018-07-10T12:34:32.930Z,2304.00
2018-07-10T12:35:32.887Z,2248.00
2018-07-10T12:37:25.916Z,2236.00
2018-07-10T12:38:25.897Z,2292.00
2018-07-10T12:40:19.109Z,2504.00
2018-07-10T12:41:18.964Z,2572.00
2018-07-10T12:43:12.932Z,2684.00
2018-07-10T12:44:12.892Z,2528.00
2018-07-10T12:46:05.893Z,2180.00
2018-07-10T12:47:05.836Z,2060.00
2018-07-10T12:48:58.669Z,2032.00
2018-07-10T12:49:58.613Z,2020.00
2018-07-10T12:51:51.640Z,1880.00
2018-07-10T12:52:51.572Z,1700.00
2018-07-10T12:54:44.429Z,1580.00
2018-07-10T12:55:44.358Z,1564.00
2018-07-10T12:57:37.359Z,1556.00
2018-07-10T12:58:37.322Z,1584.00
2018-07-10T13:00:30.257Z,1644.00
2018-07-10T13:01:30.204Z,1608.00
2018-07-10T13:03:23.170Z,1428.00
2018-07-10T13:04:23.137Z,1420.00
2018-07-10T13:06:16.138Z,1424.00
2018-07-10T13:07:16.083Z,1440.00
2018-07-10T13:09:09.249Z,1448.00
2018-07-10T13:10:09.229Z,1432.00
2018-07-10T13:12:02.030Z,1324.00
2018-07-10T13:13:01.978Z,1268.00
2018-07-10T13:14:54.952Z,1272.00
2018-07-10T13:15:54.961Z,1356.00
2018-07-10T13:17:48.060Z,1484.00
2018-07-10T13:18:47.992Z,1528.00
2018-07-10T13:20:41.046Z,1648.00
2018-07-10T13:21:40.925Z,1588.00
2018-07-10T13:23:33.906Z,1828.00
2018-07-10T13:24:33.875Z,1912.00
2018-07-10T13:26:26.701Z,1996.00
2018-07-10T13:27:26.645Z,2256.00
2018-07-10T13:29:19.644Z,3844.00
2018-07-10T13:30:19.600Z,4920.00
2018-07-10T13:32:12.584Z,5680.00
2018-07-10T13:33:12.550Z,4568.00
2018-07-10T13:35:05.515Z,3836.00
2018-07-10T13:36:05.475Z,3616.00
2018-07-10T13:37:58.311Z,3496.00
2018-07-10T13:38:58.274Z,3672.00
2018-07-10T13:40:52.217Z,4684.00
2018-07-10T13:41:52.190Z,4996.00
2018-07-10T13:43:45.175Z,4860.00
2018-07-10T13:44:45.151Z,4516.00
2018-07-10T13:46:38.320Z,5708.00
2018-07-10T13:47:38.196Z,5648.00
2018-07-10T13:49:31.187Z,5500.00
2018-07-10T13:50:31.130Z,5468.00
2018-07-10T13:52:24.108Z,4552.00
2018-07-10T13:53:24.084Z,4956.00
2018-07-10T13:55:17.206Z,6720.00
2018-07-10T13:56:17.127Z,7468.00
2018-07-10T13:58:10.124Z,5868.00
2018-07-10T13:59:10.079Z,6160.00
2018-07-10T14:01:03.386Z,6252.00
2018-07-10T14:02:03.376Z,5780.00
2018-07-10T14:03:56.394Z,5052.00
2018-07-10T14:04:56.302Z,4288.00
2018-07-10T14:06:49.723Z,4316.00
2018-07-10T14:07:49.546Z,4692.00
2018-07-10T14:09:42.538Z,4936.00
2018-07-10T14:10:42.492Z,4528.00
2018-07-10T14:12:35.525Z,4608.00
2018-07-10T14:13:35.469Z,4812.00
2018-07-10T14:15:28.532Z,4548.00
2018-07-10T14:16:28.467Z,5420.00
2018-07-10T14:18:21.468Z,6052.00
2018-07-10T14:19:21.457Z,6876.00
2018-07-10T14:21:14.369Z,5304.00
2018-07-10T14:22:14.229Z,5316.00
2018-07-10T14:24:07.092Z,8528.00
2018-07-10T14:25:07.043Z,11028.00
2018-07-10T14:27:00.083Z,6436.00
2018-07-10T14:28:00.013Z,9304.00
2018-07-10T14:29:53.001Z,7104.00
2018-07-10T14:30:52.992Z,7044.00
2018-07-10T14:32:46.092Z,4540.00
2018-07-10T14:33:46.067Z,4896.00
2018-07-10T14:35:39.051Z,5716.00
2018-07-10T14:36:38.995Z,4644.00
2018-07-10T14:38:31.968Z,5064.00
2018-07-10T14:39:31.933Z,5892.00
2018-07-10T14:41:24.778Z,6028.00
2018-07-10T14:42:24.742Z,6156.00
2018-07-10T14:44:17.704Z,5632.00
2018-07-10T14:45:17.712Z,5748.00
2018-07-10T14:47:10.687Z,4500.00
2018-07-10T14:48:10.694Z,3736.00
2018-07-10T14:50:03.455Z,4368.00
2018-07-10T14:51:03.423Z,7460.00
2018-07-10T14:52:56.377Z,6296.00
2018-07-10T14:53:56.284Z,5928.00
2018-07-10T14:55:49.283Z,4572.00
2018-07-10T14:56:49.238Z,4548.00
2018-07-10T14:58:42.240Z,4012.00
2018-07-10T14:59:42.184Z,3956.00
2018-07-10T15:01:35.362Z,2992.00
2018-07-10T15:02:35.284Z,2692.00
2018-07-10T15:04:28.288Z,2068.00
2018-07-10T15:05:28.262Z,1604.00
2018-07-10T15:07:21.265Z,1260.00
2018-07-10T15:08:21.199Z,1228.00
2018-07-10T15:10:14.039Z,1108.00
2018-07-10T15:11:14.000Z,964.00
2018-07-10T15:13:06.998Z,908.00
2018-07-10T15:14:06.949Z,904.00
2018-07-10T15:15:59.869Z,936.00
2018-07-10T15:16:59.730Z,932.00
2018-07-10T15:18:52.566Z,896.00
2018-07-10T15:19:52.509Z,920.00
2018-07-10T15:21:45.727Z,1260.00
2018-07-10T15:22:45.609Z,1492.00
2018-07-10T15:24:38.605Z,1964.00
2018-07-10T15:25:38.549Z,2960.00
2018-07-10T15:27:31.529Z,2632.00
2018-07-10T15:28:31.496Z,2460.00
2018-07-10T15:30:25.383Z,2120.00
2018-07-10T15:31:25.318Z,1708.00
2018-07-10T15:33:18.313Z,1928.00
2018-07-10T15:34:18.268Z,1772.00
2018-07-10T15:36:11.073Z,1056.00
2018-07-10T15:37:11.054Z,856.00
2018-07-10T15:39:04.399Z,468.00
2018-07-10T15:40:04.279Z,440.00
2018-07-10T15:41:57.254Z,444.00
2018-07-10T15:42:57.233Z,436.00
2018-07-10T15:44:50.231Z,408.00
2018-07-10T15:45:50.172Z,420.00
2018-07-10T15:47:43.013Z,584.00
2018-07-10T15:48:42.954Z,716.00
2018-07-10T15:50:35.964Z,1132.00
2018-07-10T15:51:35.924Z,1056.00
2018-07-10T15:53:28.930Z,988.00
2018-07-10T15:54:28.921Z,1256.00
2018-07-10T15:56:22.044Z,1424.00
2018-07-10T15:57:21.949Z,1324.00
2018-07-10T15:59:14.979Z,1496.00
2018-07-10T16:00:14.872Z,1404.00
2018-07-10T16:02:07.721Z,624.00
2018-07-10T16:03:07.777Z,652.00
2018-07-10T16:05:00.850Z,856.00
2018-07-10T16:06:00.769Z,1012.00
2018-07-10T16:07:53.747Z,964.00
2018-07-10T16:08:53.710Z,1064.00
2018-07-10T16:10:46.730Z,644.00
2018-07-10T16:11:46.679Z,436.00
2018-07-10T16:13:39.827Z,280.00
2018-07-10T16:14:39.799Z,256.00
2018-07-10T16:16:32.805Z,320.00
2018-07-10T16:17:32.791Z,396.00
2018-07-10T16:19:26.012Z,684.00
2018-07-10T16:20:25.868Z,1048.00
2018-07-10T16:22:19.840Z,2164.00
2018-07-10T16:23:19.819Z,2972.00
2018-07-10T16:25:12.651Z,3688.00
2018-07-10T16:26:12.597Z,6200.00
2018-07-10T16:28:05.396Z,7436.00
2018-07-10T16:29:05.367Z,4092.00
2018-07-10T16:30:58.491Z,7376.00
2018-07-10T16:31:58.330Z,7688.00
2018-07-10T16:33:51.340Z,5712.00
2018-07-10T16:34:51.305Z,4784.00
2018-07-10T16:36:44.318Z,6320.00
2018-07-10T16:37:44.266Z,4680.00
2018-07-10T16:39:37.400Z,6400.00
2018-07-10T16:40:37.374Z,3748.00
2018-07-10T16:42:30.397Z,4540.00
2018-07-10T16:43:30.348Z,5340.00
2018-07-10T16:45:23.567Z,5920.00
2018-07-10T16:46:23.460Z,6932.00
2018-07-10T16:48:16.471Z,8724.00
2018-07-10T16:49:16.406Z,8868.00
2018-07-10T16:51:09.248Z,8260.00
2018-07-10T16:52:09.191Z,7364.00
2018-07-10T16:54:02.017Z,3760.00
2018-07-10T16:55:01.976Z,7756.00
2018-07-10T16:56:54.891Z,4148.00
2018-07-10T16:57:54.843Z,4428.00
2018-07-10T16:59:47.827Z,3112.00
2018-07-10T17:00:47.792Z,3264.00
2018-07-10T17:02:40.637Z,5344.00
2018-07-10T17:03:40.594Z,3784.00
2018-07-10T17:05:33.567Z,2836.00
2018-07-10T17:06:33.542Z,2724.00
2018-07-10T17:08:26.407Z,2696.00
2018-07-10T17:09:26.346Z,3100.00
2018-07-10T17:11:19.346Z,3272.00
2018-07-10T17:12:19.319Z,3372.00
2018-07-10T17:14:12.341Z,3228.00
2018-07-10T17:15:12.323Z,3408.00
2018-07-10T17:17:05.445Z,3956.00
2018-07-10T17:18:05.423Z,3944.00
2018-07-10T17:19:58.443Z,4536.00
2018-07-10T17:20:58.397Z,3436.00
2018-07-10T17:22:51.640Z,2512.00
2018-07-10T17:23:51.504Z,2412.00
2018-07-10T17:25:44.494Z,2380.00
2018-07-10T17:26:44.449Z,2436.00
2018-07-10T17:28:37.438Z,2224.00
2018-07-10T17:29:37.399Z,2324.00
2018-07-10T17:31:30.210Z,2220.00
2018-07-10T17:32:30.181Z,2740.00
2018-07-10T17:34:23.127Z,2904.00
2018-07-10T17:35:22.984Z,2396.00
2018-07-10T17:37:15.947Z,1788.00
2018-07-10T17:38:15.904Z,1788.00
2018-07-10T17:40:08.960Z,1784.00
2018-07-10T17:41:08.910Z,1480.00
2018-07-10T17:43:01.744Z,1984.00
2018-07-10T17:44:01.693Z,1612.00
2018-07-10T17:45:54.704Z,1864.00
2018-07-10T17:46:54.656Z,1740.00
2018-07-10T17:48:47.660Z,1492.00
2018-07-10T17:49:47.646Z,1628.00